Time;durP1;ratioP1;P1;durP2;ratioP2;P2;SDS_P1;SDS_P2;PMS_P1;PMS_P2;Temp;Humidity;BMP_temperature;BMP_pressure;BME280_temperature;BME280_humidity;BME280_pressure;Samples;Min_cycle;Max_cycle;Signal;HPM_P1;HPM_P2
2023/08/05 00:00:09;;;;;;;;;4.00;4.00;;;;;16.85;76.76;101684.22;5009404;28;9548;-67
2023/08/05 00:02:35;;;;;;;;;8.00;6.67;;;;;16.82;77.02;101681.94;5007420;28;8900;-67
2023/08/05 00:05:02;;;;;;;;;5.25;4.50;;;;;16.80;77.01;101680.25;5000661;28;9724;-68
2023/08/05 00:07:28;;;;;;;;;4.75;4.25;;;;;16.80;77.00;101687.59;5004426;28;9618;-67
2023/08/05 00:09:55;;;;;;;;;2.75;2.75;;;;;16.80;77.09;101687.59;5007437;28;8861;-67
2023/08/05 00:12:21;;;;;;;;;6.25;3.25;;;;;16.79;77.21;101686.75;5006973;28;8976;-67
2023/08/05 00:14:48;;;;;;;;;5.50;3.50;;;;;16.82;77.26;101690.94;5009259;28;8846;-67
2023/08/05 00:17:14;;;;;;;;;3.00;3.00;;;;;16.82;77.37;101695.53;4997311;28;8845;-68
2023/08/05 00:19:42;;;;;;;;;4.75;3.50;;;;;16.82;77.60;101687.38;5009812;28;8910;-67
2023/08/05 00:22:09;;;;;;;;;3.67;3.67;;;;;16.83;77.53;101687.16;5011942;28;8925;-67
2023/08/05 00:24:36;;;;;;;;;3.00;2.25;;;;;16.85;77.44;101685.03;5012733;28;9096;-67
2023/08/05 00:27:03;;;;;;;;;3.00;3.00;;;;;16.87;77.62;101679.41;5003316;28;8861;-67
2023/08/05 00:29:33;;;;;;;;;3.75;3.00;;;;;16.88;77.42;101675.63;5009417;28;8835;-68
2023/08/05 00:31:59;;;;;;;;;4.00;4.00;;;;;16.89;77.27;101669.13;5010842;28;8850;-68
2023/08/05 00:34:26;;;;;;;;;4.00;3.00;;;;;16.89;77.48;101671.84;5009752;28;8950;-67
2023/08/05 00:36:52;;;;;;;;;4.00;4.00;;;;;16.89;77.62;101666.41;5007914;28;8835;-67
2023/08/05 00:39:19;;;;;;;;;5.50;2.75;;;;;16.88;77.59;101662.88;5006684;28;8843;-68
2023/08/05 00:41:45;;;;;;;;;3.75;3.75;;;;;16.89;77.69;101667.25;5010936;28;8858;-67
2023/08/05 00:44:12;;;;;;;;;3.75;3.25;;;;;16.89;77.35;101664.53;5008449;28;9606;-68
2023/08/05 00:46:38;;;;;;;;;1.25;1.25;;;;;16.90;77.55;101652.63;5005390;28;8867;-67
2023/08/05 00:49:05;;;;;;;;;5.50;2.75;;;;;16.92;77.71;101644.22;5007914;28;9557;-67
2023/08/05 00:51:32;;;;;;;;;3.00;3.00;;;;;16.92;77.29;101634.19;5010562;28;9576;-67
2023/08/05 00:53:58;;;;;;;;;2.00;2.00;;;;;16.92;77.65;101634.19;5010206;28;8937;-67
2023/08/05 00:56:25;;;;;;;;;5.25;3.00;;;;;16.93;77.54;101637.72;5006786;28;8952;-67
2023/08/05 00:58:52;;;;;;;;;2.00;2.00;;;;;16.93;77.60;101635.00;5006907;28;8842;-67
2023/08/05 01:01:18;;;;;;;;;4.75;3.00;;;;;16.93;77.74;101635.00;5005042;28;8906;-67
2023/08/05 01:03:45;;;;;;;;;4.50;4.50;;;;;16.93;77.78;101629.56;5001422;28;8853;-68
2023/08/05 01:06:12;;;;;;;;;2.00;2.00;;;;;16.93;77.97;101629.56;5004878;28;8851;-67
2023/08/05 01:08:40;;;;;;;;;3.00;3.00;;;;;16.94;78.08;101628.56;4999326;28;8858;-67
2023/08/05 01:11:07;;;;;;;;;3.00;3.00;;;;;16.95;77.98;101638.38;5003435;28;8957;-67
2023/08/05 01:13:34;;;;;;;;;2.00;2.00;;;;;16.95;77.88;101633.75;5010855;28;8859;-67
2023/08/05 01:16:01;;;;;;;;;2.50;2.50;;;;;16.97;77.89;101633.53;5024095;28;8835;-67
2023/08/05 01:18:29;;;;;;;;;4.50;4.50;;;;;16.97;77.83;101634.34;5002868;28;8820;-67
2023/08/05 01:21:00;;;;;;;;;2.50;2.50;;;;;16.98;78.08;101635.22;5008295;28;8841;-67
2023/08/05 01:23:48;;;;;;;;;3.00;2.75;;;;;16.99;77.94;101637.72;5006338;28;8854;-67
2023/08/05 01:26:15;;;;;;;;;1.25;1.25;;;;;16.98;77.96;101629.78;5006328;28;8869;-67
2023/08/05 01:28:42;;;;;;;;;3.50;3.50;;;;;16.98;78.05;101633.34;5008807;28;9547;-67
2023/08/05 01:31:10;;;;;;;;;2.25;2.25;;;;;16.96;77.98;101632.69;5008873;28;8921;-67
2023/08/05 01:33:37;;;;;;;;;2.00;2.00;;;;;16.97;78.07;101633.53;5000227;28;8894;-67
2023/08/05 01:36:04;;;;;;;;;5.25;4.50;;;;;16.97;77.86;101628.09;5003877;28;8832;-67
2023/08/05 01:38:30;;;;;;;;;5.50;2.75;;;;;16.96;78.13;101627.25;5006000;28;8847;-68
2023/08/05 01:40:57;;;;;;;;;1.75;1.75;;;;;16.95;77.94;101625.59;4999035;28;8826;-67
2023/08/05 01:43:25;;;;;;;;;3.50;2.25;;;;;16.96;78.13;101626.44;5003447;28;8854;-68
2023/08/05 01:45:51;;;;;;;;;3.50;2.50;;;;;16.96;77.85;101619.09;5025488;28;8831;-68
2023/08/05 01:48:18;;;;;;;;;3.00;3.00;;;;;16.95;78.10;101622.06;5006053;28;8842;-67
2023/08/05 01:50:44;;;;;;;;;4.00;3.50;;;;;16.95;77.96;101617.44;5001643;28;8819;-67
2023/08/05 01:53:10;;;;;;;;;1.75;1.75;;;;;16.96;77.77;101612.84;5004681;28;8847;-67
2023/08/05 01:55:37;;;;;;;;;2.00;2.00;;;;;16.95;77.91;101605.72;5010533;28;8862;-67
2023/08/05 01:58:03;;;;;;;;;3.75;3.75;;;;;16.94;78.20;101599.47;5009404;28;9619;-68
2023/08/05 02:00:31;;;;;;;;;3.00;2.00;;;;;16.93;77.96;101602.38;5017896;28;9013;-68
2023/08/05 02:02:57;;;;;;;;;1.75;1.75;;;;;16.92;78.05;101604.28;5014009;28;8823;-67
2023/08/05 02:05:25;;;;;;;;;4.00;4.00;;;;;16.93;78.00;101611.38;5001402;28;8851;-67
2023/08/05 02:07:51;;;;;;;;;4.00;4.00;;;;;16.92;78.30;101604.28;5009584;28;8835;-67
2023/08/05 02:10:18;;;;;;;;;2.50;2.50;;;;;16.92;78.33;101609.72;5005867;28;8950;-67
2023/08/05 02:12:44;;;;;;;;;7.25;3.75;;;;;16.92;78.13;101601.56;5009541;28;9614;-67
2023/08/05 02:15:11;;;;;;;;;3.75;3.75;;;;;16.92;78.24;101596.13;5006811;28;8885;-67
2023/08/05 02:17:37;;;;;;;;;2.50;2.50;;;;;16.93;78.44;101605.09;5008536;28;8866;-67
2023/08/05 02:20:05;;;;;;;;;3.00;2.00;;;;;16.92;78.10;101603.44;5000987;28;8912;-67
2023/08/05 02:22:31;;;;;;;;;7.00;4.25;;;;;16.91;78.50;101604.50;5004500;28;8839;-67
2023/08/05 02:24:59;;;;;;;;;3.00;3.00;;;;;16.87;78.31;101593.22;5008395;28;8870;-67
2023/08/05 02:27:25;;;;;;;;;6.25;3.25;;;;;16.88;78.85;101585.88;5010586;28;8851;-67
2023/08/05 02:29:52;;;;;;;;;4.75;3.50;;;;;16.89;78.71;101595.72;5021521;28;8847;-67
2023/08/05 02:32:18;;;;;;;;;3.75;3.75;;;;;16.88;78.71;101599.50;5007004;28;9602;-67
2023/08/05 02:34:45;;;;;;;;;8.50;3.25;;;;;16.87;78.82;101600.53;5022286;28;8823;-67
2023/08/05 02:37:11;;;;;;;;;2.75;2.75;;;;;16.86;78.56;101601.59;5009161;28;8942;-67
2023/08/05 02:39:41;;;;;;;;;2.25;2.25;;;;;16.84;79.04;101580.06;5009901;28;8828;-67
2023/08/05 02:42:07;;;;;;;;;4.50;4.50;;;;;16.84;78.98;101582.78;5007947;28;8854;-67
2023/08/05 02:44:35;;;;;;;;;2.50;2.25;;;;;16.86;78.97;101571.69;4996261;28;8856;-67
2023/08/05 02:47:02;;;;;;;;;3.00;3.00;;;;;16.84;78.62;101568.34;5013814;28;8830;-67
2023/08/05 02:49:28;;;;;;;;;2.00;2.00;;;;;16.82;78.70;101565.03;5026977;28;8858;-67
2023/08/05 02:51:56;;;;;;;;;2.00;2.00;;;;;16.83;78.71;101563.97;5011414;28;8950;-67
2023/08/05 02:54:22;;;;;;;;;2.00;2.00;;;;;16.83;79.00;101555.81;5008409;28;8855;-67
2023/08/05 02:56:49;;;;;;;;;1.50;1.50;;;;;16.84;78.92;101554.75;5009356;28;8816;-67
2023/08/05 02:59:17;;;;;;;;;1.00;1.00;;;;;16.86;78.97;101539.06;5011786;28;8868;-68
2023/08/05 03:01:43;;;;;;;;;2.75;1.75;;;;;16.85;78.67;101549.06;5005436;28;8823;-68
2023/08/05 03:04:10;;;;;;;;;0.00;0.00;;;;;16.84;78.64;101533.00;5009343;28;8883;-68
2023/08/05 03:06:36;;;;;;;;;0.75;0.50;;;;;16.84;78.61;101533.81;5011608;28;8913;-68
2023/08/05 03:09:03;;;;;;;;;1.25;1.25;;;;;16.82;78.43;101522.34;4998882;28;9133;-68
2023/08/05 03:11:33;;;;;;;;;1.00;1.00;;;;;16.81;78.29;101520.66;5009763;28;8982;-68
2023/08/05 03:14:00;;;;;;;;;1.25;1.25;;;;;16.81;78.18;101517.94;5026744;28;8835;-69
2023/08/05 03:16:26;;;;;;;;;1.75;1.75;;;;;16.80;78.56;101517.09;5012353;28;8844;-68
2023/08/05 03:19:07;;;;;;;;;2.00;2.00;;;;;16.82;78.01;101521.53;5008347;28;8849;-68
2023/08/05 03:21:34;;;;;;;;;0.75;0.75;;;;;16.80;78.25;101517.09;5005404;28;8832;-68
2023/08/05 03:24:01;;;;;;;;;1.75;1.75;;;;;16.81;77.93;101523.38;5006615;28;8835;-68
2023/08/05 03:26:29;;;;;;;;;2.25;2.25;;;;;16.82;78.12;101521.53;5010134;28;8861;-68
2023/08/05 03:29:01;;;;;;;;;2.00;1.75;;;;;16.80;78.46;101516.28;5012639;28;8846;-68
2023/08/05 03:31:29;;;;;;;;;2.75;1.75;;;;;16.79;78.47;101520.06;5010624;28;9004;-68
2023/08/05 03:33:58;;;;;;;;;2.00;2.00;;;;;16.78;78.34;101510.25;5021552;28;8855;-68
2023/08/05 03:36:27;;;;;;;;;0.75;0.75;;;;;16.79;78.61;101517.34;5023121;28;8869;-68
2023/08/05 03:38:55;;;;;;;;;3.00;1.00;;;;;16.79;78.39;101517.34;5027080;28;8831;-68
2023/08/05 03:41:21;;;;;;;;;1.50;1.50;;;;;16.77;78.44;101508.56;5013187;28;8827;-68
2023/08/05 03:43:48;;;;;;;;;1.00;1.00;;;;;16.75;78.34;101513.38;5004505;28;8838;-68
2023/08/05 03:46:16;;;;;;;;;2.00;2.00;;;;;16.74;78.45;101515.28;5006724;28;8923;-69
2023/08/05 03:48:42;;;;;;;;;1.00;1.00;;;;;16.72;78.46;101517.34;5009997;28;8835;-68
2023/08/05 03:51:09;;;;;;;;;1.75;1.00;;;;;16.71;78.79;101514.84;5007284;28;8859;-68
2023/08/05 03:53:35;;;;;;;;;1.75;1.75;;;;;16.72;78.72;101511.91;5003082;28;8842;-69
2023/08/05 03:56:06;;;;;;;;;1.75;1.75;;;;;16.70;78.72;101514.03;5014407;28;8851;-69
2023/08/05 03:58:34;;;;;;;;;1.67;1.67;;;;;16.69;79.05;101509.63;5009469;28;8831;-68
2023/08/05 04:01:01;;;;;;;;;1.00;1.00;;;;;16.68;79.04;101499.78;5003159;28;8930;-68
2023/08/05 04:03:30;;;;;;;;;1.50;1.00;;;;;16.68;78.79;101501.69;5008441;28;9644;-68
2023/08/05 04:05:57;;;;;;;;;4.50;3.00;;;;;16.66;79.03;101488.31;5008088;28;8877;-68
2023/08/05 04:08:26;;;;;;;;;3.00;3.00;;;;;16.64;79.20;101482.25;5015416;28;8833;-68
2023/08/05 04:10:52;;;;;;;;;3.75;3.75;;;;;16.64;79.52;101482.25;5007249;28;8835;-68
2023/08/05 04:13:21;;;;;;;;;1.00;1.00;;;;;16.64;79.61;101481.44;5006321;28;8872;-68
2023/08/05 04:15:47;;;;;;;;;2.75;2.75;;;;;16.63;79.57;101475.16;5003841;28;8921;-68
2023/08/05 04:18:14;;;;;;;;;3.00;2.25;;;;;16.62;79.61;101470.78;5004048;28;8849;-68
2023/08/05 04:20:41;;;;;;;;;3.50;3.25;;;;;16.63;79.63;101464.28;5020975;28;8835;-68
2023/08/05 04:23:09;;;;;;;;;2.75;2.75;;;;;16.62;79.25;101462.63;5001407;28;8931;-69
2023/08/05 04:25:35;;;;;;;;;1.50;1.50;;;;;16.61;79.41;101460.13;4997021;28;8874;-69
2023/08/05 04:28:02;;;;;;;;;2.25;2.25;;;;;16.60;79.90;101464.72;5011247;28;8835;-69
2023/08/05 04:30:28;;;;;;;;;2.00;2.00;;;;;16.59;79.47;101465.78;5009947;28;8819;-68
2023/08/05 04:32:55;;;;;;;;;2.25;2.25;;;;;16.61;79.64;101466.41;5005631;28;10191;-68
2023/08/05 04:35:21;;;;;;;;;2.50;2.50;;;;;16.59;79.56;101462.22;5001949;28;8837;-68
2023/08/05 04:37:48;;;;;;;;;2.00;2.00;;;;;16.60;79.74;101459.28;5009694;28;10948;-68
2023/08/05 04:40:14;;;;;;;;;2.25;1.75;;;;;16.61;79.40;101460.13;4993048;28;8835;-68
2023/08/05 04:42:41;;;;;;;;;3.75;3.00;;;;;16.60;79.67;101456.56;5011643;28;8840;-68
2023/08/05 04:45:08;;;;;;;;;3.00;3.00;;;;;16.56;79.75;101449.91;5011501;28;8846;-68
2023/08/05 04:47:35;;;;;;;;;2.75;2.75;;;;;16.58;79.73;101444.25;5007890;28;8926;-68
2023/08/05 04:50:02;;;;;;;;;3.33;3.00;;;;;16.58;79.83;101442.38;5010799;28;8842;-68
2023/08/05 04:52:28;;;;;;;;;3.00;3.00;;;;;16.58;79.53;101439.66;5010893;28;9649;-68
2023/08/05 04:54:54;;;;;;;;;2.25;2.25;;;;;16.58;79.66;101441.56;5012148;28;9039;-68
2023/08/05 04:57:21;;;;;;;;;2.00;2.00;;;;;16.58;79.66;101436.09;5024761;28;9665;-68
2023/08/05 04:59:47;;;;;;;;;2.50;2.50;;;;;16.55;79.78;101432.75;5008425;28;8843;-68
2023/08/05 05:02:14;;;;;;;;;4.00;3.00;;;;;16.55;79.44;101418.34;5007328;28;8930;-68
2023/08/05 05:04:40;;;;;;;;;3.75;3.00;;;;;16.54;79.38;101414.81;5006746;28;8875;-68
2023/08/05 05:07:07;;;;;;;;;2.00;2.00;;;;;16.53;79.25;101415.03;5002410;28;8845;-68
2023/08/05 05:09:33;;;;;;;;;1.00;1.00;;;;;16.53;79.35;101412.31;5006039;28;8839;-68
2023/08/05 05:12:00;;;;;;;;;1.75;1.75;;;;;16.52;79.36;101416.88;5009175;28;8911;-68
2023/08/05 05:14:27;;;;;;;;;4.33;4.33;;;;;16.51;79.55;101409.78;5009526;28;8880;-68
2023/08/05 05:16:53;;;;;;;;;2.00;2.00;;;;;16.51;79.36;101414.41;5011685;28;8925;-68
2023/08/05 05:19:20;;;;;;;;;3.00;2.00;;;;;16.51;79.19;101411.69;5019130;28;8955;-68
2023/08/05 05:21:46;;;;;;;;;4.75;3.00;;;;;16.49;79.31;101414.63;5002453;28;8831;-68
2023/08/05 05:24:13;;;;;;;;;3.25;3.25;;;;;16.49;79.35;101406.47;5008216;28;8841;-68
2023/08/05 05:26:39;;;;;;;;;2.00;2.00;;;;;16.49;79.17;101408.38;5002888;28;8952;-68
2023/08/05 05:29:06;;;;;;;;;1.50;1.00;;;;;16.50;79.65;101404.59;5007956;28;8832;-68
2023/08/05 05:31:32;;;;;;;;;3.00;2.00;;;;;16.51;79.14;101400.81;5007074;28;9774;-68
2023/08/05 05:33:59;;;;;;;;;5.75;5.00;;;;;16.51;79.29;101400.81;5008074;28;8846;-69
2023/08/05 05:36:25;;;;;;;;;2.00;2.00;;;;;16.51;79.41;101393.50;5007290;28;9599;-68
2023/08/05 05:38:52;;;;;;;;;4.00;2.00;;;;;16.51;79.39;101393.50;5009093;28;8835;-68
2023/08/05 05:41:18;;;;;;;;;1.50;1.50;;;;;16.54;79.40;101386.78;5009850;28;8827;-69
2023/08/05 05:43:45;;;;;;;;;2.75;2.75;;;;;16.57;79.47;101386.38;5017683;28;8885;-68
2023/08/05 05:46:13;;;;;;;;;5.00;3.00;;;;;16.57;79.09;101389.06;5007117;28;9631;-68
2023/08/05 05:48:40;;;;;;;;;2.00;2.00;;;;;16.60;79.63;101376.91;5002422;28;8963;-68
2023/08/05 05:51:07;;;;;;;;;3.00;2.00;;;;;16.61;79.08;101382.16;5001965;28;8870;-68
2023/08/05 05:53:33;;;;;;;;;5.33;5.00;;;;;16.60;79.48;101385.91;5006782;28;9638;-68
2023/08/05 05:55:59;;;;;;;;;3.75;3.25;;;;;16.61;79.44;101384.00;5004363;28;9013;-68
2023/08/05 05:58:27;;;;;;;;;3.00;2.50;;;;;16.60;79.33;101385.91;4998215;28;8839;-68
2023/08/05 06:00:55;;;;;;;;;2.25;2.25;;;;;16.62;79.08;101386.53;5009715;28;8841;-68
2023/08/05 06:03:21;;;;;;;;;3.75;2.75;;;;;16.64;79.46;101383.56;4996305;28;8862;-68
2023/08/05 06:05:50;;;;;;;;;3.25;1.25;;;;;16.64;79.52;101381.69;5003803;28;8965;-68
2023/08/05 06:08:17;;;;;;;;;4.25;3.00;;;;;16.61;79.15;101378.56;5007222;28;9637;-68
2023/08/05 06:10:44;;;;;;;;;2.00;2.00;;;;;16.60;79.50;101388.63;5003306;28;8946;-68
2023/08/05 06:13:11;;;;;;;;;2.00;2.00;;;;;16.61;79.30;101386.72;5003323;28;8811;-68
2023/08/05 06:15:41;;;;;;;;;3.67;3.00;;;;;16.61;79.22;101397.59;5010544;28;8831;-68
2023/08/05 06:18:09;;;;;;;;;2.25;2.25;;;;;16.61;79.38;101390.31;5003949;28;9850;-68
2023/08/05 06:20:36;;;;;;;;;0.75;0.75;;;;;16.59;79.57;101381.53;5007757;28;8835;-68
2023/08/05 06:23:03;;;;;;;;;4.00;2.00;;;;;16.56;79.58;101374.63;5010762;28;8827;-68
2023/08/05 06:25:29;;;;;;;;;2.50;2.50;;;;;16.57;79.71;101380.94;5018203;28;8847;-68
2023/08/05 06:27:56;;;;;;;;;3.50;3.50;;;;;16.59;79.60;101375.25;5005420;28;8838;-68
2023/08/05 06:30:22;;;;;;;;;3.00;3.00;;;;;16.60;79.74;101366.03;5007487;28;8850;-68
2023/08/05 06:32:49;;;;;;;;;5.25;4.75;;;;;16.62;79.90;101361.22;5010550;28;8837;-68
2023/08/05 06:35:16;;;;;;;;;4.75;3.00;;;;;16.62;79.97;101353.06;5010655;28;8897;-68
2023/08/05 06:37:43;;;;;;;;;1.25;1.25;;;;;16.64;79.76;101351.78;4998765;28;8858;-68
2023/08/05 06:40:11;;;;;;;;;4.50;3.00;;;;;16.67;79.84;101351.34;4996138;28;8850;-69
2023/08/05 06:42:37;;;;;;;;;4.00;3.00;;;;;16.67;79.75;101358.66;5004869;28;8869;-68
2023/08/05 06:45:05;;;;;;;;;4.25;3.00;;;;;16.68;79.58;101358.44;4998074;28;8842;-69
2023/08/05 06:47:31;;;;;;;;;3.25;3.25;;;;;16.74;79.63;101357.59;5004450;28;8862;-68
2023/08/05 06:49:58;;;;;;;;;2.75;2.75;;;;;16.79;79.46;101365.91;5000931;28;9561;-69
2023/08/05 06:52:24;;;;;;;;;7.00;7.00;;;;;16.83;79.56;101357.31;5001825;28;8842;-69
2023/08/05 06:54:51;;;;;;;;;6.00;3.00;;;;;16.86;79.53;101365.88;5003795;28;9588;-68
2023/08/05 06:57:18;;;;;;;;;5.00;3.00;;;;;16.89;79.31;101359.13;5007500;28;8832;-68
2023/08/05 06:59:45;;;;;;;;;4.75;4.75;;;;;16.93;79.15;101349.47;5001789;28;8962;-68
2023/08/05 07:02:12;;;;;;;;;4.00;4.00;;;;;16.95;79.15;101334.59;5005383;28;8886;-68
2023/08/05 07:04:39;;;;;;;;;4.00;4.00;;;;;17.00;78.72;101336.63;5002521;28;9654;-68
2023/08/05 07:07:05;;;;;;;;;7.00;6.33;;;;;17.01;78.73;101335.56;5008462;28;8865;-68
2023/08/05 07:09:32;;;;;;;;;8.50;6.50;;;;;17.02;78.77;101332.66;4989315;28;8968;-68
2023/08/05 07:11:59;;;;;;;;;2.75;2.25;;;;;17.06;78.61;101330.31;4996036;28;8876;-68
2023/08/05 07:14:25;;;;;;;;;3.00;2.50;;;;;17.12;78.43;101332.13;5006398;28;8870;-68
2023/08/05 07:16:52;;;;;;;;;5.75;5.75;;;;;17.14;78.24;101329.19;4996921;28;8882;-68
2023/08/05 07:19:18;;;;;;;;;6.50;4.00;;;;;17.10;77.76;101320.66;5002821;28;8908;-70
2023/08/05 07:21:45;;;;;;;;;3.50;3.50;;;;;17.14;77.87;101319.13;5003880;28;8911;-70
2023/08/05 07:24:11;;;;;;;;;7.00;5.50;;;;;17.14;77.52;101313.69;5006653;28;8902;-70
2023/08/05 07:26:38;;;;;;;;;6.75;6.00;;;;;17.16;77.64;101316.19;5004061;28;8953;-68
2023/08/05 07:29:04;;;;;;;;;9.00;7.75;;;;;17.15;77.28;101318.06;5006635;28;8834;-69
2023/08/05 07:31:31;;;;;;;;;7.25;7.00;;;;;17.14;77.50;101310.16;5002894;28;8941;-69
2023/08/05 07:33:57;;;;;;;;;4.75;4.75;;;;;17.16;76.56;101305.28;5026269;28;8985;-69
2023/08/05 07:36:26;;;;;;;;;7.75;7.00;;;;;17.13;76.68;101308.47;5007200;28;8881;-69
2023/08/05 07:38:54;;;;;;;;;8.25;7.00;;;;;17.17;76.54;101310.50;5006483;28;8873;-69
2023/08/05 07:41:23;;;;;;;;;9.25;8.00;;;;;17.20;76.31;101309.22;5005323;28;8854;-69
2023/08/05 07:43:50;;;;;;;;;7.75;7.00;;;;;17.14;76.16;101307.44;5009929;28;8827;-69
2023/08/05 07:46:19;;;;;;;;;7.00;7.00;;;;;17.14;76.25;101300.09;5007132;28;8883;-69
2023/08/05 07:48:47;;;;;;;;;11.00;10.00;;;;;17.12;76.20;101299.47;5004703;28;8925;-68
2023/08/05 07:51:13;;;;;;;;;6.25;5.25;;;;;17.18;76.06;101297.75;5006682;28;8999;-69
2023/08/05 07:53:40;;;;;;;;;10.75;8.00;;;;;17.24;76.31;101286.78;5006397;28;8814;-69
2023/08/05 07:56:14;;;;;;;;;7.25;7.25;;;;;17.31;75.89;101281.25;5008660;28;8851;-68
2023/08/05 07:58:44;;;;;;;;;9.25;7.75;;;;;17.37;75.61;101277.63;5025956;28;8871;-68
2023/08/05 08:01:13;;;;;;;;;9.33;9.00;;;;;17.38;75.47;101275.72;5003862;28;8888;-69
2023/08/05 08:03:43;;;;;;;;;10.33;9.67;;;;;17.38;75.43;101281.16;5023907;28;8930;-69
2023/08/05 08:06:14;;;;;;;;;9.00;7.25;;;;;17.40;75.44;101269.00;5000796;28;8968;-69
2023/08/05 08:08:42;;;;;;;;;8.00;8.00;;;;;17.43;75.43;101268.56;5009007;28;9622;-69
2023/08/05 08:11:10;;;;;;;;;15.00;11.33;;;;;17.44;75.26;101259.31;5003417;28;9009;-69
2023/08/05 08:13:37;;;;;;;;;7.33;7.00;;;;;17.46;75.17;101259.06;5011263;28;8986;-68
2023/08/05 08:16:03;;;;;;;;;9.00;8.00;;;;;17.46;75.13;101254.50;5007949;28;8865;-68
2023/08/05 08:18:30;;;;;;;;;8.67;8.67;;;;;17.53;75.14;101249.75;5008896;28;8927;-68
2023/08/05 08:20:56;;;;;;;;;6.75;6.00;;;;;17.61;75.09;101245.88;5008920;28;8923;-67
2023/08/05 08:23:23;;;;;;;;;10.25;9.25;;;;;17.67;74.86;101241.44;5008642;28;9001;-69
2023/08/05 08:25:50;;;;;;;;;9.67;9.67;;;;;17.68;74.53;101243.09;5009989;28;8843;-68
2023/08/05 08:28:16;;;;;;;;;7.75;7.75;;;;;17.74;74.36;101232.16;5006886;28;9062;-69
2023/08/05 08:30:57;;;;;;;;;4.50;4.50;;;;;17.88;74.39;101224.59;5022847;28;8945;-68
2023/08/05 08:33:25;;;;;;;;;5.50;5.50;;;;;17.92;73.99;101228.50;5006531;28;9631;-68
2023/08/05 08:35:52;;;;;;;;;13.50;11.25;;;;;17.92;73.90;101236.69;5010247;28;8867;-69
2023/08/05 08:38:20;;;;;;;;;10.50;8.50;;;;;17.91;73.87;101226.03;5008449;28;8827;-69
2023/08/05 08:40:51;;;;;;;;;11.50;10.50;;;;;17.91;73.80;101223.31;4994820;28;8835;-69
2023/08/05 08:43:21;;;;;;;;;9.75;9.75;;;;;17.86;73.75;101223.16;5000328;28;8823;-69
2023/08/05 08:45:51;;;;;;;;;14.00;10.50;;;;;17.82;73.49;101216.50;5018375;28;8850;-69
2023/08/05 08:48:19;;;;;;;;;8.00;7.00;;;;;17.83;72.96;101218.19;5010535;28;8859;-69
2023/08/05 08:50:52;;;;;;;;;4.50;4.50;;;;;17.89;72.33;101219.97;4998863;28;8835;-69
2023/08/05 08:53:19;;;;;;;;;7.25;7.00;;;;;17.97;71.72;101219.63;5005176;28;8861;-69
2023/08/05 08:55:46;;;;;;;;;4.25;4.25;;;;;18.00;70.98;101206.38;5014298;28;8826;-69
2023/08/05 08:58:13;;;;;;;;;4.50;4.50;;;;;18.09;70.99;101206.84;5008954;28;8877;-67
2023/08/05 09:00:40;;;;;;;;;4.00;4.00;;;;;18.22;70.73;101200.34;5008697;28;9035;-68
2023/08/05 09:03:07;;;;;;;;;8.25;8.25;;;;;18.16;70.31;101196.69;5014720;28;8974;-68
2023/08/05 09:05:52;;;;;;;;;8.25;7.75;;;;;18.08;70.12;101199.75;5008201;28;8835;-67
2023/08/05 09:08:19;;;;;;;;;6.50;5.00;;;;;17.99;70.12;101188.38;5004389;28;8845;-67
2023/08/05 09:10:45;;;;;;;;;6.50;6.50;;;;;18.03;70.43;101170.50;4998191;28;8851;-68
2023/08/05 09:13:16;;;;;;;;;6.50;6.50;;;;;18.05;70.94;101181.16;5011801;28;8819;-68
2023/08/05 09:15:43;;;;;;;;;4.00;4.00;;;;;18.16;70.94;101169.44;5026953;28;8882;-67
2023/08/05 09:18:09;;;;;;;;;8.00;7.00;;;;;18.22;70.79;101173.09;5010860;28;8865;-68
2023/08/05 09:20:37;;;;;;;;;9.25;8.50;;;;;18.26;70.21;101171.56;5011369;28;8807;-68
2023/08/05 09:23:09;;;;;;;;;6.25;6.00;;;;;18.33;70.20;101171.44;5011306;28;8842;-67
2023/08/05 09:25:41;;;;;;;;;6.00;6.00;;;;;18.36;69.89;101160.91;5007890;28;8862;-68
2023/08/05 09:28:08;;;;;;;;;6.50;6.50;;;;;18.41;69.81;101146.56;5024497;28;8827;-68
2023/08/05 09:30:35;;;;;;;;;6.00;6.00;;;;;18.44;69.61;101148.81;5011192;28;8846;-68
2023/08/05 09:33:02;;;;;;;;;8.75;6.75;;;;;18.44;69.75;101146.09;5011193;28;8827;-67
2023/08/05 09:35:29;;;;;;;;;10.25;8.00;;;;;18.41;69.82;101144.66;5010802;28;9522;-67
2023/08/05 09:37:56;;;;;;;;;5.75;5.25;;;;;18.42;70.29;101129.94;5011295;28;9602;-68
2023/08/05 09:40:28;;;;;;;;;7.75;7.75;;;;;18.46;70.58;101133.03;5001759;28;8851;-67
2023/08/05 09:42:59;;;;;;;;;4.50;4.50;;;;;18.52;70.26;101134.81;5009863;28;9013;-68
2023/08/05 09:45:28;;;;;;;;;6.50;6.50;;;;;18.46;69.74;101130.31;5010355;28;8832;-68
2023/08/05 09:48:04;;;;;;;;;8.25;7.25;;;;;18.47;69.35;101131.97;5011022;28;8827;-67
2023/08/05 09:50:31;;;;;;;;;7.00;7.00;;;;;18.39;69.07;101129.59;5010860;28;8835;-68
2023/08/05 09:53:01;;;;;;;;;4.75;4.25;;;;;18.31;69.08;101129.97;5009302;28;8824;-68
2023/08/05 09:55:28;;;;;;;;;4.25;4.25;;;;;18.33;69.05;101119.66;5009285;28;8847;-68
2023/08/05 09:57:56;;;;;;;;;6.50;6.00;;;;;18.31;69.34;101117.19;5009493;28;8839;-67
2023/08/05 10:00:23;;;;;;;;;12.75;11.00;;;;;18.19;69.42;101125.38;5024178;28;9726;-68
2023/08/05 10:02:50;;;;;;;;;7.00;7.00;;;;;18.16;70.22;101116.84;4990993;28;8964;-68
2023/08/05 10:05:17;;;;;;;;;5.75;5.75;;;;;18.20;70.31;101107.94;4991238;28;8845;-68
2023/08/05 10:07:43;;;;;;;;;10.25;9.00;;;;;18.25;70.29;101118.13;4992511;28;8853;-68
2023/08/05 10:10:13;;;;;;;;;9.25;9.00;;;;;18.24;70.51;101105.59;5009158;28;8869;-68
2023/08/05 10:13:03;;;;;;;;;8.50;8.25;;;;;18.16;70.90;101106.78;5009540;28;8851;-67
2023/08/05 10:15:32;;;;;;;;;8.00;7.00;;;;;18.15;71.31;101116.00;5009851;28;8865;-68
2023/08/05 10:17:58;;;;;;;;;12.00;11.00;;;;;17.98;71.68;101109.59;5010295;28;8859;-68
2023/08/05 10:20:25;;;;;;;;;7.75;7.25;;;;;17.99;71.92;101108.56;5010178;28;8839;-68
2023/08/05 10:23:03;;;;;;;;;10.50;8.00;;;;;17.97;72.06;101094.34;5009046;28;8853;-68
2023/08/05 10:25:37;;;;;;;;;8.75;8.75;;;;;18.05;72.19;101083.06;5008626;28;9619;-66
2023/08/05 10:28:03;;;;;;;;;12.25;12.25;;;;;18.06;72.12;101073.00;5009414;28;8855;-68
2023/08/05 10:30:30;;;;;;;;;9.75;9.75;;;;;18.12;71.94;101080.25;5010298;28;9545;-67
2023/08/05 10:32:58;;;;;;;;;10.75;9.50;;;;;18.23;71.68;101084.81;5007791;28;9673;-66
2023/08/05 10:35:39;;;;;;;;;10.00;9.00;;;;;18.24;71.46;101072.88;5002534;28;8957;-68
2023/08/05 10:38:22;;;;;;;;;8.50;8.50;;;;;18.25;71.28;101063.63;4996517;28;8867;-68
2023/08/05 10:40:56;;;;;;;;;7.00;7.00;;;;;18.29;70.80;101064.81;5000138;28;9584;-68
2023/08/05 10:43:35;;;;;;;;;8.75;8.75;;;;;18.35;70.48;101060.28;5008877;28;9555;-68
2023/08/05 10:46:05;;;;;;;;;11.25;11.25;;;;;18.36;70.34;101064.69;5006322;28;8874;-68
2023/08/05 10:48:35;;;;;;;;;9.25;8.00;;;;;18.45;69.85;101065.97;5006149;28;8966;-66
2023/08/05 10:51:11;;;;;;;;;6.50;6.50;;;;;18.56;69.72;101064.28;5000260;28;8828;-66
2023/08/05 10:53:38;;;;;;;;;9.25;9.25;;;;;18.60;68.57;101060.00;5009332;28;8863;-68
2023/08/05 10:56:12;;;;;;;;;7.75;7.75;;;;;18.51;67.15;101063.13;5004957;28;8993;-66
2023/08/05 10:58:50;;;;;;;;;8.75;8.00;;;;;18.52;67.15;101053.03;5003867;28;8818;-66
2023/08/05 11:01:17;;;;;;;;;4.75;4.75;;;;;18.51;66.74;101040.44;4997408;28;8831;-66
2023/08/05 11:03:46;;;;;;;;;4.50;4.50;;;;;18.56;66.90;101035.13;5004238;28;8828;-68
2023/08/05 11:06:14;;;;;;;;;7.50;7.50;;;;;18.63;67.38;101045.84;5007567;28;8873;-66
2023/08/05 11:08:42;;;;;;;;;8.00;8.00;;;;;18.54;67.03;101039.97;5013874;28;8843;-68
2023/08/05 11:11:11;;;;;;;;;11.00;9.25;;;;;18.50;67.03;101036.91;5013680;28;8831;-68
2023/08/05 11:13:39;;;;;;;;;12.50;10.50;;;;;18.43;67.13;101040.81;5007481;28;9027;-65
2023/08/05 11:16:15;;;;;;;;;5.00;5.00;;;;;18.41;67.13;101048.44;5009193;28;8851;-66
2023/08/05 11:18:46;;;;;;;;;12.00;11.25;;;;;18.29;67.15;101029.38;5008182;28;8844;-68
2023/08/05 11:21:14;;;;;;;;;10.00;9.25;;;;;18.18;67.29;101020.16;4990762;28;8846;-67
2023/08/05 11:23:43;;;;;;;;;6.25;6.25;;;;;18.21;67.50;101036.03;5009085;28;8825;-67
2023/08/05 11:26:10;;;;;;;;;6.50;6.00;;;;;18.12;67.11;101031.19;5007049;28;8843;-66
2023/08/05 11:28:46;;;;;;;;;5.50;5.50;;;;;18.04;66.62;101025.06;5002242;28;8845;-66
2023/08/05 11:31:23;;;;;;;;;3.75;3.75;;;;;17.98;66.28;101020.53;5013119;28;8835;-67
2023/08/05 11:33:51;;;;;;;;;5.25;5.25;;;;;17.92;66.01;101013.34;5028524;28;8888;-66